Time;durP1;ratioP1;P1;durP2;ratioP2;P2;SDS_P1;SDS_P2;PMS_P1;PMS_P2;Temp;Humidity;BMP_temperature;BMP_pressure;BME280_temperature;BME280_humidity;BME280_pressure;Samples;Min_cycle;Max_cycle;Signal;HPM_P1;HPM_P2
2022/01/22 00:01:59;;;;;;;13.32;6.65;;;;;;;5.95;71.32;103331.81;5092339;28;20493;-67
2022/01/22 00:04:24;;;;;;;13.73;6.07;;;;;;;5.98;71.18;103327.91;5092200;28;20039;-67
2022/01/22 00:06:51;;;;;;;15.27;6.85;;;;;;;5.98;71.20;103337.03;5091873;28;20036;-67
2022/01/22 00:09:17;;;;;;;14.02;6.32;;;;;;;5.94;71.58;103330.09;5108079;28;20024;-67
2022/01/22 00:11:51;;;;;;;12.05;6.75;;;;;;;5.95;71.49;103323.56;5105128;28;20026;-67
2022/01/22 00:14:26;;;;;;;16.38;7.18;;;;;;;5.90;71.65;103318.50;5105434;28;20021;-68
2022/01/22 00:16:57;;;;;;;13.10;6.55;;;;;;;5.88;71.45;103316.94;5093943;28;20035;-67
2022/01/22 00:19:24;;;;;;;12.95;6.75;;;;;;;5.90;71.65;103314.88;5095892;28;20067;-67
2022/01/22 00:21:50;;;;;;;11.60;6.60;;;;;;;5.89;71.41;103319.53;5103178;28;20042;-67
2022/01/22 00:24:16;;;;;;;14.48;7.07;;;;;;;5.94;71.66;103313.56;5109225;28;20031;-68
2022/01/22 00:26:42;;;;;;;16.60;6.20;;;;;;;5.94;71.46;103315.47;5092741;28;20122;-67
2022/01/22 00:29:08;;;;;;;11.65;6.15;;;;;;;5.93;71.45;103310.94;5095698;28;20027;-67
2022/01/22 00:31:33;;;;;;;13.95;5.68;;;;;;;5.89;71.38;103318.66;5109113;28;20031;-67
2022/01/22 00:33:59;;;;;;;12.75;6.03;;;;;;;5.89;71.20;103305.75;5102119;28;20031;-67
2022/01/22 00:36:24;;;;;;;11.82;5.38;;;;;;;5.89;72.00;103307.63;5091516;28;20039;-68
2022/01/22 00:38:49;;;;;;;11.45;5.65;;;;;;;5.92;71.54;103301.81;5092523;28;20121;-67
2022/01/22 00:41:15;;;;;;;8.25;5.47;;;;;;;5.89;71.54;103288.31;5098980;28;20757;-67
2022/01/22 00:43:40;;;;;;;13.32;5.53;;;;;;;5.92;71.71;103293.56;5111622;28;20054;-67
2022/01/22 00:46:05;;;;;;;12.23;5.68;;;;;;;5.88;71.72;103303.16;5109980;28;20120;-67
2022/01/22 00:48:31;;;;;;;12.82;6.10;;;;;;;5.90;72.26;103290.06;5101983;28;20497;-67
2022/01/22 00:50:57;;;;;;;14.82;6.43;;;;;;;5.88;71.63;103289.34;5095276;28;20035;-67
2022/01/22 00:53:24;;;;;;;15.30;6.43;;;;;;;5.83;72.11;103294.50;5095723;28;20047;-67
2022/01/22 00:55:50;;;;;;;12.48;6.22;;;;;;;5.85;72.14;103298.81;5091232;28;20068;-67
2022/01/22 00:58:16;;;;;;;11.05;6.30;;;;;;;5.87;72.02;103302.28;5091545;28;21542;-67
2022/01/22 01:00:41;;;;;;;15.50;6.20;;;;;;;5.89;72.01;103296.59;5091407;28;20077;-67
2022/01/22 01:03:06;;;;;;;13.65;6.53;;;;;;;5.90;71.97;103303.88;5090817;28;20086;-67
2022/01/22 01:05:32;;;;;;;16.80;6.53;;;;;;;5.87;72.19;103309.69;5097975;28;20038;-67
2022/01/22 01:07:57;;;;;;;18.65;7.05;;;;;;;5.87;72.09;103321.56;5092848;28;20463;-67
2022/01/22 01:10:23;;;;;;;13.23;6.57;;;;;;;5.90;71.60;103320.41;5093912;28;20112;-67
2022/01/22 01:12:50;;;;;;;12.57;6.70;;;;;;;5.88;71.92;103319.69;5105823;28;20031;-67
2022/01/22 01:34:22;;;;;;;15.63;7.45;;;;;;;5.92;71.86;103318.38;5103036;28;20478;-67
2022/01/22 01:36:48;;;;;;;15.63;7.88;;;;;;;5.89;72.06;103307.63;5101916;28;20066;-67
2022/01/22 01:39:30;;;;;;;11.93;8.18;;;;;;;5.88;72.13;103308.66;5098267;28;20059;-67
2022/01/22 01:42:01;;;;;;;14.02;8.13;;;;;;;5.93;71.60;103311.81;5092338;28;20114;-67
2022/01/22 01:44:27;;;;;;;12.80;8.60;;;;;;;5.94;72.19;103315.47;5091135;28;20035;-67
2022/01/22 01:46:57;;;;;;;17.02;8.57;;;;;;;5.93;72.52;103319.22;5091186;28;20032;-67
2022/01/22 01:49:23;;;;;;;16.40;8.38;;;;;;;5.93;72.43;103313.72;5091189;28;20081;-67
2022/01/22 01:51:48;;;;;;;14.43;8.85;;;;;;;5.94;72.57;103320.97;5091309;28;20040;-67
2022/01/22 01:59:45;;;;;;;15.52;8.18;;;;;;;5.87;72.95;103313.31;5093203;28;20081;-68
2022/01/22 02:02:11;;;;;;;19.48;8.73;;;;;;;5.88;72.66;103308.66;5093242;28;20360;-67
2022/01/22 02:04:37;;;;;;;16.98;9.02;;;;;;;5.90;73.03;103292.84;5099082;28;20043;-67
2022/01/22 02:07:03;;;;;;;17.02;9.52;;;;;;;5.94;72.74;103294.28;5103222;28;20032;-67
2022/01/22 02:09:28;;;;;;;21.60;10.15;;;;;;;5.92;72.45;103293.56;5090949;28;20038;-67
2022/01/22 02:12:03;;;;;;;15.73;10.25;;;;;;;5.91;73.03;103308.34;5092510;28;20398;-67
2022/01/22 02:25:23;;;;;;;16.55;12.20;;;;;;;5.96;73.11;103308.75;5096046;28;20043;-67
2022/01/22 02:27:48;;;;;;;18.10;11.63;;;;;;;5.99;72.64;103296.53;5093478;28;20036;-67
2022/01/22 02:30:20;;;;;;;20.27;12.20;;;;;;;6.01;72.61;103298.13;5098560;28;20463;-67
2022/01/22 02:35:32;;;;;;;24.20;13.77;;;;;;;6.00;73.25;103298.25;5095136;28;20395;-67
2022/01/22 02:38:03;;;;;;;22.88;13.00;;;;;;;5.97;74.02;103304.94;5094694;28;20028;-67
2022/01/22 02:40:34;;;;;;;20.52;14.38;;;;;;;5.99;73.92;103313.94;5096702;28;20039;-67
2022/01/22 02:43:00;;;;;;;20.55;14.32;;;;;;;5.94;74.13;103299.78;5093858;28;20046;-67
2022/01/22 02:45:26;;;;;;;21.77;14.80;;;;;;;5.98;74.23;103301.19;5101774;28;20382;-67
2022/01/22 02:47:51;;;;;;;19.98;14.52;;;;;;;5.99;74.04;103302.03;5114484;28;20035;-67
2022/01/22 02:50:18;;;;;;;25.08;14.77;;;;;;;5.95;74.33;103314.44;5108210;28;20348;-67
2022/01/22 02:52:43;;;;;;;23.00;15.23;;;;;;;5.99;74.24;103313.06;5094424;28;20048;-67
2022/01/22 02:55:11;;;;;;;21.00;14.77;;;;;;;5.97;74.26;103315.13;5094406;28;20073;-67
2022/01/22 02:57:37;;;;;;;24.75;15.07;;;;;;;5.96;74.00;103311.50;5098508;28;20030;-67
2022/01/22 03:00:06;;;;;;;20.92;15.13;;;;;;;5.97;74.08;103313.22;5110778;28;20110;-68
2022/01/22 03:02:31;;;;;;;22.40;14.77;;;;;;;5.94;74.59;103310.81;5095100;28;20043;-67
2022/01/22 03:04:57;;;;;;;20.48;14.88;;;;;;;5.95;74.34;103314.44;5109412;28;20475;-67
2022/01/22 03:07:23;;;;;;;19.75;14.88;;;;;;;5.97;74.02;103321.50;5110938;28;20479;-67
2022/01/22 03:09:51;;;;;;;21.05;15.73;;;;;;;5.95;74.63;103322.69;5112778;28;20035;-67
2022/01/22 03:18:00;;;;;;;21.90;15.05;;;;;;;5.97;74.33;103313.22;5096831;28;20043;-67
2022/01/22 03:23:11;;;;;;;20.90;15.10;;;;;;;5.95;74.98;103315.28;5101075;28;20043;-67
2022/01/22 03:28:24;;;;;;;26.90;16.15;;;;;;;5.98;74.58;103303.94;5093890;28;20113;-67
2022/01/22 03:30:49;;;;;;;26.02;16.10;;;;;;;6.00;74.50;103303.78;5093011;28;20514;-67
2022/01/22 03:33:19;;;;;;;24.00;16.08;;;;;;;5.96;74.74;103322.53;5102550;28;20040;-67
2022/01/22 03:35:50;;;;;;;25.23;16.38;;;;;;;5.97;74.47;103318.72;5096138;28;20035;-67
2022/01/22 03:38:15;;;;;;;25.05;17.60;;;;;;;5.97;74.88;103312.34;5101411;28;20097;-67
2022/01/22 03:40:40;;;;;;;25.23;15.88;;;;;;;5.99;74.42;103313.06;5105657;28;20447;-67
2022/01/22 03:43:05;;;;;;;23.50;16.73;;;;;;;5.96;74.82;103318.91;5097520;28;20028;-67
2022/01/22 03:45:31;;;;;;;25.58;18.13;;;;;;;5.95;74.75;103315.28;5096031;28;20031;-67
2022/01/22 03:47:56;;;;;;;23.52;17.30;;;;;;;5.95;74.97;103308.91;5106846;28;20022;-68
2022/01/22 03:50:22;;;;;;;27.65;17.98;;;;;;;5.99;74.44;103318.59;5105126;28;20474;-67
2022/01/22 03:52:48;;;;;;;23.83;18.38;;;;;;;5.97;74.91;103315.13;5101885;28;20032;-66
2022/01/22 03:55:28;;;;;;;28.65;18.67;;;;;;;5.88;75.50;103317.78;5101874;28;20058;-67
2022/01/22 03:57:53;;;;;;;28.02;19.17;;;;;;;5.87;75.36;103310.56;5102906;28;20435;-68
2022/01/22 04:00:19;;;;;;;29.55;19.65;;;;;;;5.91;75.54;103311.09;5104112;28;20020;-68
2022/01/22 04:03:21;;;;;;;33.03;20.95;;;;;;;5.94;75.44;103308.06;5094112;28;20419;-67
2022/01/22 04:05:42;;;;;;;34.38;21.20;;;;;;;5.95;75.57;103312.53;5097480;28;20079;-67
2022/01/22 04:08:15;;;;;;;;;;;;;;;6.10;74.40;103304.53;5092424;28;20077;-67
2022/01/22 04:10:41;;;;;;;36.05;20.65;;;;;;;5.96;75.65;103311.50;5104206;28;19923;-67
2022/01/22 04:13:11;;;;;;;31.17;21.80;;;;;;;5.94;75.70;103309.94;5109818;28;20046;-68
2022/01/22 04:15:39;;;;;;;35.97;22.83;;;;;;;5.95;76.12;103312.53;5110776;28;20035;-68
2022/01/22 04:28:43;;;;;;;35.42;24.70;;;;;;;5.93;75.79;103316.47;5091605;28;20032;-68
2022/01/22 04:31:08;;;;;;;34.72;25.38;;;;;;;5.91;76.17;103305.59;5092778;28;20031;-68
2022/01/22 04:33:33;;;;;;;34.22;25.02;;;;;;;5.88;76.29;103311.41;5093971;28;20048;-67
2022/01/22 04:35:58;;;;;;;41.05;26.30;;;;;;;5.93;75.97;103310.94;5091232;28;20024;-68
2022/01/22 04:38:24;;;;;;;36.03;26.65;;;;;;;5.93;75.96;103305.44;5110764;28;20028;-68
2022/01/22 04:40:49;;;;;;;36.92;26.45;;;;;;;5.96;76.25;103297.72;5102557;28;20536;-67
2022/01/22 04:43:15;;;;;;;35.28;25.85;;;;;;;5.93;76.37;103310.94;5094578;28;20031;-68
2022/01/22 04:55:43;;;;;;;43.03;26.98;;;;;;;5.94;76.66;103310.81;5096101;28;20494;-68
2022/01/22 04:58:09;;;;;;;37.72;26.65;;;;;;;5.93;76.39;103308.19;5110767;28;20027;-68
2022/01/22 05:00:37;;;;;;;37.10;26.60;;;;;;;5.94;76.42;103315.47;5103778;28;20465;-68
2022/01/22 05:03:03;;;;;;;37.83;26.75;;;;;;;5.93;76.69;103314.56;5092949;28;20028;-68
2022/01/22 05:05:29;;;;;;;38.40;26.02;;;;;;;5.96;76.88;103318.91;5095604;28;20364;-68
2022/01/22 05:07:55;;;;;;;39.92;26.23;;;;;;;5.96;76.03;103299.59;5095239;28;20114;-68
2022/01/22 05:10:20;;;;;;;36.40;26.02;;;;;;;5.99;76.12;103297.41;5096889;28;20016;-68
2022/01/22 05:12:46;;;;;;;39.88;27.50;;;;;;;6.02;76.81;103304.50;5092057;28;20097;-67
2022/01/22 05:15:12;;;;;;;38.95;27.10;;;;;;;5.99;76.69;103307.56;5097212;28;20111;-68
2022/01/22 05:17:41;;;;;;;40.38;26.27;;;;;;;6.04;76.48;103303.28;5093345;28;20115;-67
2022/01/22 05:20:16;;;;;;;35.92;26.08;;;;;;;6.03;76.25;103297.94;5103796;28;20052;-67
2022/01/22 05:25:51;;;;;;;39.38;25.75;;;;;;;6.07;76.48;103305.72;5096607;28;20399;-68
2022/01/22 05:31:32;;;;;;;42.00;26.60;;;;;;;6.08;75.98;103299.16;5093152;28;20042;-67
2022/01/22 05:36:57;;;;;;;38.25;25.88;;;;;;;6.05;76.32;103294.00;5100936;28;20036;-68
2022/01/22 05:39:24;;;;;;;35.13;25.13;;;;;;;6.04;76.27;103292.25;5106077;28;20466;-67
2022/01/22 05:41:50;;;;;;;34.35;24.95;;;;;;;6.05;76.40;103302.28;5094398;28;20032;-68
2022/01/22 05:44:15;;;;;;;39.42;27.67;;;;;;;6.04;76.54;103299.66;5089563;28;20521;-67
2022/01/22 05:46:41;;;;;;;41.40;26.98;;;;;;;6.03;76.63;103304.31;5106558;28;20371;-68
2022/01/22 05:49:06;;;;;;;38.30;26.30;;;;;;;6.05;76.67;103302.28;5110188;28;20513;-67
2022/01/22 05:51:33;;;;;;;39.38;25.80;;;;;;;6.06;76.29;103300.38;5101716;28;20675;-68
2022/01/22 05:59:36;;;;;;;36.55;25.52;;;;;;;6.07;76.64;103311.22;5102273;28;20050;-67
2022/01/22 06:02:06;;;;;;;35.08;25.27;;;;;;;6.08;76.50;103301.91;5100972;28;20032;-67
2022/01/22 06:04:31;;;;;;;39.92;26.65;;;;;;;6.10;76.60;103301.78;5101957;28;20453;-68
2022/01/22 06:06:56;;;;;;;37.72;25.45;;;;;;;6.08;76.86;103307.44;5114227;28;20023;-67
2022/01/22 06:09:22;;;;;;;37.38;26.30;;;;;;;6.07;76.45;103316.75;5101709;28;20051;-66
2022/01/22 06:11:57;;;;;;;36.58;26.38;;;;;;;6.07;76.50;103313.97;5101779;28;20382;-67
2022/01/22 06:14:22;;;;;;;38.40;25.35;;;;;;;6.04;76.53;103311.53;5093919;28;20028;-67
2022/01/22 06:16:48;;;;;;;37.08;25.05;;;;;;;6.08;76.85;103318.47;5102183;28;20348;-69
2022/01/22 06:19:14;;;;;;;38.67;26.05;;;;;;;6.05;77.04;103316.06;5112731;28;20911;-66
2022/01/22 06:21:39;;;;;;;38.65;25.30;;;;;;;6.08;76.25;103307.44;5110445;28;20115;-69
2022/01/22 06:24:05;;;;;;;35.75;25.20;;;;;;;6.10;76.61;103310.91;5093706;28;20162;-67
2022/01/22 06:26:30;;;;;;;35.20;25.88;;;;;;;6.11;76.56;103309.00;5100291;28;20107;-69
2022/01/22 06:28:55;;;;;;;38.83;24.55;;;;;;;6.09;77.13;103308.28;5104689;28;20032;-66
2022/01/22 06:31:21;;;;;;;40.78;26.00;;;;;;;6.14;76.86;103308.69;5095929;28;20027;-65
2022/01/22 06:33:46;;;;;;;33.92;24.65;;;;;;;6.12;76.63;103302.47;5093818;28;20740;-71
2022/01/22 06:36:12;;;;;;;40.95;24.67;;;;;;;6.14;76.67;103309.56;5094409;28;20035;-69
2022/01/22 06:38:37;;;;;;;41.72;26.30;;;;;;;6.13;77.23;103315.22;5094708;28;20028;-69
2022/01/22 06:43:47;;;;;;;41.80;25.75;;;;;;;6.09;77.02;103324.84;5098537;28;20501;-69
2022/01/22 06:46:12;;;;;;;40.28;24.35;;;;;;;6.10;77.09;103321.94;5103245;28;20035;-70
2022/01/22 06:48:38;;;;;;;36.08;24.13;;;;;;;6.13;76.56;103331.75;5112048;28;20076;-68
2022/01/22 06:51:03;;;;;;;37.95;24.90;;;;;;;6.15;77.17;103321.44;5112593;28;20035;-68
2022/01/22 06:53:28;;;;;;;37.40;24.05;;;;;;;6.15;77.08;103327.81;5106742;27;20027;-69
2022/01/22 06:55:58;;;;;;;36.15;24.40;;;;;;;6.19;76.90;103324.75;5105280;28;20043;-68
2022/01/22 06:58:24;;;;;;;37.35;24.65;;;;;;;6.15;76.98;103327.81;5113323;28;20040;-68
2022/01/22 07:00:49;;;;;;;38.30;24.65;;;;;;;6.17;76.96;103327.66;5106986;28;20031;-68
2022/01/22 07:03:14;;;;;;;38.90;24.63;;;;;;;6.17;76.69;103337.81;5098179;28;20381;-68
2022/01/22 07:05:39;;;;;;;43.28;25.92;;;;;;;6.17;77.25;103326.78;5114180;28;20121;-68
2022/01/22 07:08:05;;;;;;;42.10;24.98;;;;;;;6.17;76.42;103326.78;5095169;28;20064;-68
2022/01/22 07:10:31;;;;;;;38.63;23.27;;;;;;;6.18;76.37;103334.91;5093169;28;20028;-69
2022/01/22 07:12:56;;;;;;;36.85;23.58;;;;;;;6.21;77.05;103334.59;5092807;28;20039;-68
2022/01/22 07:15:21;;;;;;;36.97;23.35;;;;;;;6.22;77.16;103346.47;5097698;28;20442;-68
2022/01/22 07:17:47;;;;;;;36.45;23.83;;;;;;;6.20;76.72;103359.56;5095044;28;20391;-68
2022/01/22 07:20:25;;;;;;;40.17;22.80;;;;;;;6.21;76.96;103364.94;5093614;28;20036;-68
2022/01/22 07:22:54;;;;;;;34.25;23.23;;;;;;;6.22;76.79;103374.91;5107326;28;20036;-68
2022/01/22 07:25:20;;;;;;;40.53;23.40;;;;;;;6.22;76.59;103374.91;5105929;28;20406;-68
2022/01/22 07:27:45;;;;;;;38.75;23.60;;;;;;;6.21;76.41;103377.81;5093373;28;20020;-68
2022/01/22 07:30:12;;;;;;;38.00;23.25;;;;;;;6.22;77.25;103376.81;5095530;28;20046;-68
2022/01/22 07:32:41;;;;;;;38.20;23.33;;;;;;;6.22;77.03;103377.69;5101352;28;20028;-69
2022/01/22 07:35:07;;;;;;;31.08;21.35;;;;;;;6.24;76.74;103378.38;5103947;28;20154;-69
2022/01/22 07:37:33;;;;;;;32.17;22.45;;;;;;;6.22;77.37;103368.53;5092567;28;20128;-69
2022/01/22 07:39:58;;;;;;;35.70;21.67;;;;;;;6.27;77.22;103374.44;5096912;28;20032;-69
2022/01/22 07:42:23;;;;;;;36.42;22.10;;;;;;;6.29;77.53;103376.00;5111093;28;20032;-68
2022/01/22 07:44:49;;;;;;;39.47;22.05;;;;;;;6.28;77.07;103384.41;5109857;28;20070;-69
2022/01/22 07:47:14;;;;;;;28.45;20.92;;;;;;;6.28;77.40;103385.28;5096904;28;20019;-68
2022/01/22 07:49:40;;;;;;;35.95;22.08;;;;;;;6.27;77.77;103382.69;5099031;28;20028;-70
2022/01/22 07:52:06;;;;;;;41.25;22.00;;;;;;;6.29;76.86;103383.41;5099329;28;20043;-69
2022/01/22 07:54:32;;;;;;;37.35;22.85;;;;;;;6.27;78.04;103382.69;5113225;28;20588;-68
2022/01/22 07:56:58;;;;;;;39.58;23.13;;;;;;;6.28;77.28;103381.66;5113372;28;20028;-69
2022/01/22 07:59:23;;;;;;;38.47;22.23;;;;;;;6.28;77.39;103379.75;5112454;28;20424;-69
2022/01/22 08:01:48;;;;;;;35.83;21.80;;;;;;;6.29;77.58;103377.91;5106832;28;20032;-69
2022/01/22 08:04:14;;;;;;;34.47;20.38;;;;;;;6.28;78.15;103381.66;5092360;28;20111;-69
2022/01/22 08:06:39;;;;;;;35.20;22.00;;;;;;;6.30;77.82;103385.13;5094691;28;20130;-69
2022/01/22 08:09:05;;;;;;;35.88;21.33;;;;;;;6.30;77.56;103376.88;5111487;28;20532;-69
2022/01/22 08:11:30;;;;;;;38.88;20.73;;;;;;;6.30;77.28;103376.88;5098578;28;20025;-69
2022/01/22 08:13:55;;;;;;;39.97;21.65;;;;;;;6.31;77.68;103375.84;5091684;28;20372;-69
2022/01/22 08:16:21;;;;;;;35.83;22.35;;;;;;;6.33;77.77;103379.31;5092307;28;20182;-69
2022/01/22 08:18:46;;;;;;;34.75;20.98;;;;;;;6.33;77.24;103365.50;5092399;28;20466;-69
2022/01/22 08:21:11;;;;;;;39.20;21.10;;;;;;;6.33;77.30;103366.38;5091493;28;20051;-69
2022/01/22 08:23:37;;;;;;;34.38;21.50;;;;;;;6.34;77.54;103378.28;5108037;28;20028;-69
2022/01/22 08:26:06;;;;;;;29.08;20.33;;;;;;;6.33;77.95;103377.41;5108513;28;20053;-68
2022/01/22 08:36:30;;;;;;;37.92;20.65;;;;;;;6.39;76.84;103375.88;5103312;28;20070;-70
2022/01/22 08:38:56;;;;;;;35.55;20.02;;;;;;;6.40;77.25;103366.56;5096561;28;20043;-72
2022/01/22 08:41:21;;;;;;;36.30;19.20;;;;;;;6.43;76.57;103365.38;5103313;28;20390;-70
2022/01/22 08:43:47;;;;;;;35.33;19.75;;;;;;;6.47;76.64;103372.31;5104352;28;20031;-71
2022/01/22 08:46:12;;;;;;;32.63;19.30;;;;;;;6.45;76.92;103371.63;5104949;28;20055;-70
2022/01/22 08:48:37;;;;;;;29.17;18.98;;;;;;;6.45;76.92;103368.84;5099795;28;20031;-71
2022/01/22 08:51:03;;;;;;;28.50;18.88;;;;;;;6.44;77.11;103367.09;5108400;28;20497;-69
2022/01/22 08:53:28;;;;;;;34.45;19.23;;;;;;;6.45;76.88;103371.63;5095673;28;20065;-70
2022/01/22 08:55:54;;;;;;;33.85;19.48;;;;;;;6.48;76.98;103368.50;5099578;28;20075;-72
2022/01/22 08:58:19;;;;;;;36.90;18.75;;;;;;;6.48;77.13;103380.41;5091779;28;20107;-71
2022/01/22 09:00:45;;;;;;;36.70;19.48;;;;;;;6.49;76.30;103375.78;5109650;28;20032;-69
2022/01/22 09:03:13;;;;;;;33.03;18.27;;;;;;;6.50;76.77;103383.00;5110379;28;20024;-68
2022/01/22 09:05:38;;;;;;;20.08;12.50;;;;;;;7.06;79.01;103389.81;5100785;28;20039;-68
2022/01/22 09:08:05;;;;;;;32.03;17.92;;;;;;;7.11;76.21;103391.03;5106621;28;20030;-71
2022/01/22 09:10:31;;;;;;;31.13;16.45;;;;;;;7.07;75.20;103397.94;5108505;28;20462;-70
2022/01/22 09:12:56;;;;;;;26.55;16.55;;;;;;;7.00;74.97;103401.53;5104562;28;20023;-70
2022/01/22 09:15:22;;;;;;;26.40;17.05;;;;;;;6.93;75.44;103401.31;5111158;28;20036;-69
2022/01/22 09:17:48;;;;;;;26.75;16.08;;;;;;;6.85;75.38;103415.97;5094021;28;20486;-69
2022/01/22 09:20:30;;;;;;;26.85;16.77;;;;;;;6.80;76.28;103417.50;5091569;28;20034;-70
2022/01/22 09:22:55;;;;;;;28.85;17.42;;;;;;;6.77;76.13;103415.06;5090866;28;20024;-70
2022/01/22 09:25:20;;;;;;;27.05;17.13;;;;;;;6.76;76.47;103414.19;5092344;28;20031;-70
2022/01/22 09:27:46;;;;;;;27.33;17.30;;;;;;;6.75;76.38;103419.88;5092568;28;20429;-70
2022/01/22 09:30:11;;;;;;;30.05;17.60;;;;;;;6.72;75.85;103409.16;5101818;28;20047;-70
2022/01/22 09:32:36;;;;;;;30.90;16.67;;;;;;;6.73;76.26;103403.47;5091461;28;20031;-70
2022/01/22 09:35:02;;;;;;;31.63;17.73;;;;;;;6.73;76.39;103403.47;5091325;28;20103;-69
2022/01/22 09:37:27;;;;;;;32.25;17.40;;;;;;;6.75;76.43;103404.16;5090651;28;20031;-69
2022/01/22 09:39:53;;;;;;;26.52;17.92;;;;;;;6.73;76.73;103411.75;5091131;28;20020;-69
2022/01/22 09:42:18;;;;;;;30.88;18.10;;;;;;;6.75;76.13;103417.09;5100232;28;20028;-70
2022/01/22 09:44:43;;;;;;;29.27;17.60;;;;;;;6.75;76.71;103431.78;5109098;28;20075;-69
2022/01/22 09:47:11;;;;;;;24.85;16.25;;;;;;;6.74;76.72;103431.94;5095569;28;20036;-70
2022/01/22 09:49:36;;;;;;;27.70;16.73;;;;;;;6.74;76.54;103429.19;5091308;28;20028;-70
2022/01/22 09:52:01;;;;;;;29.23;16.90;;;;;;;6.75;76.52;103451.09;5090474;28;20391;-70
2022/01/22 09:54:27;;;;;;;35.75;18.10;;;;;;;6.76;76.68;103436.28;5091091;28;20133;-69
2022/01/22 09:56:52;;;;;;;28.58;17.63;;;;;;;6.79;76.93;103435.06;5091147;28;20395;-69
2022/01/22 09:59:17;;;;;;;30.13;17.20;;;;;;;6.76;76.63;103436.28;5090702;28;20033;-70
2022/01/22 10:01:42;;;;;;;27.48;18.23;;;;;;;6.77;76.96;103437.16;5090452;28;20032;-70
2022/01/22 10:04:08;;;;;;;27.13;17.60;;;;;;;6.76;76.69;103451.94;5108155;28;20035;-69
2022/01/22 10:06:47;;;;;;;29.73;19.27;;;;;;;6.78;76.71;103441.63;5110758;28;20027;-69
2022/01/22 10:09:24;;;;;;;27.45;18.00;;;;;;;6.78;76.91;103434.22;5110849;28;20505;-69
2022/01/22 10:12:07;;;;;;;28.23;17.55;;;;;;;6.82;76.89;103443.03;5098842;28;20093;-69
2022/01/22 10:14:32;;;;;;;26.40;17.23;;;;;;;6.82;76.59;103443.03;5095597;28;20103;-71
2022/01/22 10:16:58;;;;;;;26.15;18.08;;;;;;;6.81;76.33;103433.88;5101286;28;20110;-68
2022/01/22 10:19:24;;;;;;;32.15;17.70;;;;;;;6.82;76.99;103443.88;5103586;28;20039;-71
2022/01/22 10:22:03;;;;;;;25.02;16.77;;;;;;;6.83;76.65;103448.38;5100952;28;20106;-72
2022/01/22 10:27:24;;;;;;;28.48;18.10;;;;;;;6.88;77.25;103445.16;5102422;28;20020;-74
2022/01/22 10:29:57;;;;;;;26.23;16.63;;;;;;;6.87;77.11;103441.50;5104901;28;20848;-71
2022/01/22 10:32:33;;;;;;;27.92;16.63;;;;;;;6.86;77.12;103438.91;5102421;28;20030;-73
2022/01/22 10:35:12;;;;;;;24.95;15.98;;;;;;;6.91;76.19;103439.25;5095876;28;20345;-72
2022/01/22 10:37:38;;;;;;;29.40;16.58;;;;;;;6.87;77.25;103447.00;5102667;28;20062;-72
2022/01/22 10:40:19;;;;;;;25.52;16.25;;;;;;;6.93;76.73;103444.63;5105002;28;20032;-69
2022/01/22 10:42:44;;;;;;;28.33;16.38;;;;;;;6.92;76.58;103438.25;5098833;28;20502;-68
2022/01/22 10:45:13;;;;;;;26.70;17.42;;;;;;;6.92;77.07;103434.59;5109226;28;20028;-69
2022/01/22 10:47:38;;;;;;;26.65;16.85;;;;;;;6.91;76.12;103433.75;5107932;28;20133;-70
2022/01/22 10:50:36;;;;;;;25.75;17.25;;;;;;;6.99;76.18;103452.25;5102618;28;20475;-68
2022/01/22 10:53:01;;;;;;;27.33;17.55;;;;;;;6.93;76.24;103448.25;5065854;28;20114;-69
2022/01/22 10:55:26;;;;;;;31.23;17.33;;;;;;;6.95;76.57;103443.41;5112154;28;20612;-68
2022/01/22 10:58:07;;;;;;;24.27;16.92;;;;;;;6.96;76.45;103445.19;5112428;27;20028;-68
2022/01/22 11:00:32;;;;;;;28.45;17.77;;;;;;;6.96;76.59;103450.69;5104569;28;20024;-68
2022/01/22 11:02:58;;;;;;;27.70;17.98;;;;;;;6.96;76.92;103450.69;5107545;27;20024;-68
2022/01/22 11:05:34;;;;;;;26.73;17.63;;;;;;;6.99;76.07;103453.09;5119339;27;20023;-68
2022/01/22 11:08:14;;;;;;;29.15;18.30;;;;;;;7.01;76.77;103451.06;5106509;27;20028;-68
2022/01/22 11:10:44;;;;;;;31.10;19.25;;;;;;;7.00;76.21;103445.72;5109053;27;20420;-68
2022/01/22 11:13:09;;;;;;;27.30;17.90;;;;;;;7.01;76.71;103440.00;5107626;27;20039;-70
2022/01/22 11:15:35;;;;;;;32.47;19.77;;;;;;;7.03;76.33;103440.69;5098909;27;21334;-66
2022/01/22 11:18:02;;;;;;;36.92;20.48;;;;;;;7.17;77.71;103432.81;5105133;27;20016;-67
2022/01/22 11:20:28;;;;;;;26.67;19.67;;;;;;;7.14;76.38;103437.63;5105370;28;20043;-65
2022/01/22 11:22:55;;;;;;;27.65;19.05;;;;;;;7.14;76.08;103426.59;5116239;27;20036;-64
2022/01/22 11:25:21;;;;;;;27.45;18.80;;;;;;;7.12;76.03;103428.66;5122708;27;20030;-65
2022/01/22 11:27:47;;;;;;;26.70;19.65;;;;;;;7.12;76.30;103419.53;5101365;28;20020;-69
2022/01/22 11:30:18;;;;;;;30.35;19.02;;;;;;;7.12;76.43;103416.75;5101286;28;20479;-69
2022/01/22 11:32:52;;;;;;;29.90;20.13;;;;;;;7.07;76.52;103420.03;5104451;28;20050;-67
2022/01/22 11:35:41;;;;;;;26.95;20.13;;;;;;;7.09;75.62;103420.72;5106828;28;20024;-65
2022/01/22 11:38:15;;;;;;;31.33;20.25;;;;;;;7.07;75.96;103428.31;5102685;27;20049;-68
2022/01/22 11:40:41;;;;;;;27.95;21.52;;;;;;;7.08;75.54;103430.03;5100812;28;20028;-64
2022/01/22 11:43:19;;;;;;;34.25;21.13;;;;;;;7.06;76.06;103423.78;5104638;28;20028;-72
2022/01/22 11:45:54;;;;;;;29.20;21.08;;;;;;;7.07;76.36;103417.25;5097452;28;20095;-70
2022/01/22 11:48:30;;;;;;;31.83;22.25;;;;;;;7.05;76.21;103413.78;5099983;28;20023;-72
2022/01/22 11:51:23;;;;;;;33.78;22.10;;;;;;;7.11;76.07;103415.91;5099742;27;20076;-70
2022/01/22 11:53:57;;;;;;;30.23;22.08;;;;;;;7.10;76.03;103425.19;5098657;28;20032;-70
2022/01/22 11:56:27;;;;;;;31.25;22.50;;;;;;;7.10;75.97;103418.81;5097644;28;20047;-69
2022/01/22 11:58:55;;;;;;;38.20;23.08;;;;;;;7.12;76.11;103422.28;5107445;28;20049;-70
2022/01/22 12:01:43;;;;;;;36.95;23.63;;;;;;;7.15;75.61;103416.41;5107972;28;20039;-71
2022/01/22 12:04:10;;;;;;;35.45;22.25;;;;;;;7.11;76.28;103415.91;5108542;28;20027;-62
2022/01/22 12:06:36;;;;;;;34.50;22.88;;;;;;;7.09;75.77;103423.47;5106822;28;20019;-65
2022/01/22 12:09:13;;;;;;;34.88;22.45;;;;;;;7.27;78.24;103420.59;5108665;27;20035;-64
2022/01/22 12:14:50;;;;;;;26.13;15.80;;;;;;;7.62;78.81;103415.81;5112574;27;20097;-63
2022/01/22 12:17:25;;;;;;;30.80;22.55;;;;;;;7.49;76.26;103415.47;5103513;27;20040;-63
2022/01/22 12:20:44;;;;;;;36.50;22.38;;;;;;;7.43;75.22;103414.25;5123399;27;20066;-63
2022/01/22 12:22:39;;;;;;;36.35;23.45;;;;;;;7.38;75.42;103411.13;5101118;28;20031;-64
2022/01/22 12:25:07;;;;;;;36.95;23.85;;;;;;;7.30;75.76;103408.34;5119975;27;20047;-65
2022/01/22 12:27:46;;;;;;;34.95;24.10;;;;;;;7.26;75.88;103418.00;5108955;27;20082;-65
2022/01/22 12:30:13;;;;;;;34.90;22.75;;;;;;;7.21;76.29;103426.78;5109673;27;20031;-66
2022/01/22 12:32:46;;;;;;;42.83;23.20;;;;;;;7.23;75.88;103424.75;5096615;27;20059;-66
2022/01/22 12:35:15;;;;;;;34.13;22.90;;;;;;;7.19;76.28;103422.47;5117565;27;20478;-66
2022/01/22 12:37:45;;;;;;;32.50;23.63;;;;;;;7.20;76.41;103425.06;5112409;27;20042;-66
2022/01/22 12:40:13;;;;;;;32.63;22.92;;;;;;;7.14;76.55;103426.59;5113538;27;20027;-66
2022/01/22 12:42:53;;;;;;;34.38;23.52;;;;;;;7.21;75.84;103428.69;5115543;27;20020;-66
2022/01/22 12:45:20;;;;;;;34.22;24.38;;;;;;;7.21;76.24;103420.41;5115117;27;20088;-66
2022/01/22 12:47:48;;;;;;;37.90;24.90;;;;;;;7.20;75.69;103424.22;5121298;27;20055;-66
2022/01/22 12:50:14;;;;;;;36.15;23.30;;;;;;;7.19;76.46;103423.34;5106126;28;20107;-66
2022/01/22 12:52:45;;;;;;;35.78;24.17;;;;;;;7.21;76.33;103424.03;5117354;27;20115;-66
2022/01/22 12:55:26;;;;;;;33.97;25.15;;;;;;;7.21;76.17;103425.94;5124499;27;20043;-64
2022/01/22 12:57:52;;;;;;;33.90;22.70;;;;;;;7.27;77.37;103431.66;5111398;27;20406;-64
2022/01/22 13:00:19;;;;;;;35.42;25.20;;;;;;;7.22;76.87;103425.75;5100021;28;20028;-65
2022/01/22 13:02:46;;;;;;;35.85;25.95;;;;;;;7.21;76.86;103431.44;5110721;27;20081;-66
2022/01/22 13:05:17;;;;;;;35.25;25.27;;;;;;;7.23;76.19;103432.13;5119630;27;20031;-66